sensor_id;sensor_type;location;lat;lon;timestamp;pressure;altitude;pressure_sealevel;temperature;humidity
4586;BME280;2305;50.118;8.952;2023-04-21T00:00:31;100310.63;;;9.59;100.00
4586;BME280;2305;50.118;8.952;2023-04-21T00:02:59;100310.63;;;9.59;100.00
4586;BME280;2305;50.118;8.952;2023-04-21T00:05:30;100321.03;;;9.60;100.00
4586;BME280;2305;50.118;8.952;2023-04-21T00:07:59;100321.88;;;9.61;100.00
4586;BME280;2305;50.118;8.952;2023-04-21T00:10:27;100320.06;;;9.61;100.00
4586;BME280;2305;50.118;8.952;2023-04-21T00:12:57;100318.16;;;9.63;100.00
4586;BME280;2305;50.118;8.952;2023-04-21T00:15:26;100320.56;;;9.55;100.00
4586;BME280;2305;50.118;8.952;2023-04-21T00:17:54;100323.91;;;9.57;100.00
4586;BME280;2305;50.118;8.952;2023-04-21T00:20:23;100319.59;;;9.56;100.00
4586;BME280;2305;50.118;8.952;2023-04-21T00:22:54;100319.47;;;9.58;100.00
4586;BME280;2305;50.118;8.952;2023-04-21T00:25:23;100323.91;;;9.57;100.00
4586;BME280;2305;50.118;8.952;2023-04-21T00:27:55;100324.72;;;9.58;100.00
4586;BME280;2305;50.118;8.952;2023-04-21T00:30:23;100321.28;;;9.57;100.00
4586;BME280;2305;50.118;8.952;2023-04-21T00:32:51;100313.38;;;9.57;100.00
4586;BME280;2305;50.118;8.952;2023-04-21T00:35:21;100318.75;;;9.56;100.00
4586;BME280;2305;50.118;8.952;2023-04-21T00:37:50;100305.84;;;9.53;100.00
4586;BME280;2305;50.118;8.952;2023-04-21T00:40:20;100311.22;;;9.51;100.00
4586;BME280;2305;50.118;8.952;2023-04-21T00:42:48;100313.25;;;9.48;100.00
4586;BME280;2305;50.118;8.952;2023-04-21T00:45:16;100307.13;;;9.47;100.00
4586;BME280;2305;50.118;8.952;2023-04-21T00:47:45;100304.25;;;9.39;100.00
4586;BME280;2305;50.118;8.952;2023-04-21T00:50:13;100300.44;;;9.32;100.00
4586;BME280;2305;50.118;8.952;2023-04-21T00:52:41;100300.69;;;9.29;100.00
4586;BME280;2305;50.118;8.952;2023-04-21T00:55:14;100300.56;;;9.31;100.00
4586;BME280;2305;50.118;8.952;2023-04-21T00:57:44;100297.00;;;9.32;100.00
4586;BME280;2305;50.118;8.952;2023-04-21T01:00:13;100299.72;;;9.30;100.00
4586;BME280;2305;50.118;8.952;2023-04-21T01:02:42;100305.44;;;9.24;100.00
4586;BME280;2305;50.118;8.952;2023-04-21T01:05:13;100298.63;;;9.22;100.00
4586;BME280;2305;50.118;8.952;2023-04-21T01:07:42;100289.19;;;9.19;100.00
4586;BME280;2305;50.118;8.952;2023-04-21T01:10:11;100286.78;;;9.16;100.00
4586;BME280;2305;50.118;8.952;2023-04-21T01:12:44;100288.09;;;9.11;100.00
4586;BME280;2305;50.118;8.952;2023-04-21T01:15:16;100288.31;;;9.08;100.00
4586;BME280;2305;50.118;8.952;2023-04-21T01:17:44;100290.50;;;9.03;100.00
4586;BME280;2305;50.118;8.952;2023-04-21T01:20:16;100294.03;;;9.02;100.00
4586;BME280;2305;50.118;8.952;2023-04-21T01:22:48;100288.19;;;8.98;100.00
4586;BME280;2305;50.118;8.952;2023-04-21T01:25:17;100289.13;;;8.97;100.00
4586;BME280;2305;50.118;8.952;2023-04-21T01:27:50;100291.16;;;8.94;100.00
4586;BME280;2305;50.118;8.952;2023-04-21T01:30:20;100288.78;;;8.91;100.00
4586;BME280;2305;50.118;8.952;2023-04-21T01:32:52;100279.44;;;8.87;100.00
4586;BME280;2305;50.118;8.952;2023-04-21T01:35:20;100284.06;;;8.83;100.00
4586;BME280;2305;50.118;8.952;2023-04-21T01:37:50;100286.00;;;8.82;100.00
4586;BME280;2305;50.118;8.952;2023-04-21T01:40:20;100288.00;;;8.78;100.00
4586;BME280;2305;50.118;8.952;2023-04-21T01:42:50;100275.94;;;8.76;100.00
4586;BME280;2305;50.118;8.952;2023-04-21T01:45:18;100278.91;;;8.71;100.00
4586;BME280;2305;50.118;8.952;2023-04-21T01:47:46;100279.88;;;8.70;100.00
4586;BME280;2305;50.118;8.952;2023-04-21T01:50:14;100279.16;;;8.68;100.00
4586;BME280;2305;50.118;8.952;2023-04-21T01:52:42;100288.19;;;8.64;100.00
4586;BME280;2305;50.118;8.952;2023-04-21T01:55:12;100284.00;;;8.62;100.00
4586;BME280;2305;50.118;8.952;2023-04-21T01:57:41;100283.19;;;8.61;100.00
4586;BME280;2305;50.118;8.952;2023-04-21T02:00:11;100287.94;;;8.56;100.00
4586;BME280;2305;50.118;8.952;2023-04-21T02:02:43;100294.25;;;8.54;100.00
4586;BME280;2305;50.118;8.952;2023-04-21T02:05:12;100293.41;;;8.53;100.00
4586;BME280;2305;50.118;8.952;2023-04-21T02:07:41;100294.25;;;8.54;100.00
4586;BME280;2305;50.118;8.952;2023-04-21T02:10:12;100291.25;;;8.47;100.00
4586;BME280;2305;50.118;8.952;2023-04-21T02:12:42;100293.03;;;8.47;100.00
4586;BME280;2305;50.118;8.952;2023-04-21T02:15:12;100293.88;;;8.47;100.00
4586;BME280;2305;50.118;8.952;2023-04-21T02:17:40;100289.78;;;8.43;100.00
4586;BME280;2305;50.118;8.952;2023-04-21T02:20:11;100292.63;;;8.40;100.00
4586;BME280;2305;50.118;8.952;2023-04-21T02:22:41;100293.69;;;8.38;100.00
4586;BME280;2305;50.118;8.952;2023-04-21T02:25:13;100299.91;;;8.37;100.00
4586;BME280;2305;50.118;8.952;2023-04-21T02:27:44;100291.41;;;8.33;100.00
4586;BME280;2305;50.118;8.952;2023-04-21T02:30:12;100289.59;;;8.34;100.00
4586;BME280;2305;50.118;8.952;2023-04-21T02:32:40;100288.66;;;8.35;100.00
4586;BME280;2305;50.118;8.952;2023-04-21T02:35:11;100290.47;;;8.34;100.00
4586;BME280;2305;50.118;8.952;2023-04-21T02:37:39;100287.72;;;8.36;100.00
4586;BME280;2305;50.118;8.952;2023-04-21T02:40:08;100284.34;;;8.34;100.00
4586;BME280;2305;50.118;8.952;2023-04-21T02:42:41;100289.59;;;8.34;100.00
4586;BME280;2305;50.118;8.952;2023-04-21T02:45:10;100290.69;;;8.31;100.00
4586;BME280;2305;50.118;8.952;2023-04-21T02:47:38;100295.72;;;8.34;100.00
4586;BME280;2305;50.118;8.952;2023-04-21T02:50:06;100287.13;;;8.32;100.00
4586;BME280;2305;50.118;8.952;2023-04-21T02:52:36;100291.50;;;8.32;100.00
4586;BME280;2305;50.118;8.952;2023-04-21T02:55:05;100282.22;;;8.28;100.00
4586;BME280;2305;50.118;8.952;2023-04-21T02:57:35;100278.84;;;8.26;100.00
4586;BME280;2305;50.118;8.952;2023-04-21T03:00:09;100286.00;;;8.24;100.00
4586;BME280;2305;50.118;8.952;2023-04-21T03:02:39;100286.94;;;8.23;100.00
4586;BME280;2305;50.118;8.952;2023-04-21T03:05:11;100289.47;;;8.24;100.00
4586;BME280;2305;50.118;8.952;2023-04-21T03:07:39;100284.22;;;8.24;100.00
4586;BME280;2305;50.118;8.952;2023-04-21T03:10:10;100281.59;;;8.24;100.00
4586;BME280;2305;50.118;8.952;2023-04-21T03:12:38;100286.09;;;8.22;100.00
4586;BME280;2305;50.118;8.952;2023-04-21T03:15:08;100285.38;;;8.20;100.00
4586;BME280;2305;50.118;8.952;2023-04-21T03:17:37;100274.94;;;8.19;100.00
4586;BME280;2305;50.118;8.952;2023-04-21T03:20:06;100285.38;;;8.20;100.00
4586;BME280;2305;50.118;8.952;2023-04-21T03:22:35;100287.91;;;8.22;100.00
4586;BME280;2305;50.118;8.952;2023-04-21T03:25:04;100284.41;;;8.21;100.00
4586;BME280;2305;50.118;8.952;2023-04-21T03:27:33;100287.75;;;8.23;100.00
4586;BME280;2305;50.118;8.952;2023-04-21T03:30:03;100279.69;;;8.26;100.00
4586;BME280;2305;50.118;8.952;2023-04-21T03:32:34;100288.28;;;8.28;100.00
4586;BME280;2305;50.118;8.952;2023-04-21T03:35:05;100283.03;;;8.28;100.00
4586;BME280;2305;50.118;8.952;2023-04-21T03:37:33;100281.97;;;8.31;100.00
4586;BME280;2305;50.118;8.952;2023-04-21T03:40:02;100277.56;;;8.31;100.00
4586;BME280;2305;50.118;8.952;2023-04-21T03:42:31;100280.06;;;8.33;100.00
4586;BME280;2305;50.118;8.952;2023-04-21T03:45:01;100292.38;;;8.32;100.00
4586;BME280;2305;50.118;8.952;2023-04-21T03:47:33;100302.72;;;8.34;100.00
4586;BME280;2305;50.118;8.952;2023-04-21T03:50:02;100291.91;;;8.38;100.00
4586;BME280;2305;50.118;8.952;2023-04-21T03:52:32;100282.47;;;8.36;100.00
4586;BME280;2305;50.118;8.952;2023-04-21T03:55:05;100285.94;;;8.36;100.00
4586;BME280;2305;50.118;8.952;2023-04-21T03:57:38;100289.25;;;8.38;100.00
4586;BME280;2305;50.118;8.952;2023-04-21T04:00:08;100287.50;;;8.39;100.00
4586;BME280;2305;50.118;8.952;2023-04-21T04:02:40;100281.53;;;8.37;100.00
4586;BME280;2305;50.118;8.952;2023-04-21T04:05:09;100290.34;;;8.36;100.00
4586;BME280;2305;50.118;8.952;2023-04-21T04:07:39;100291.06;;;8.38;100.00
4586;BME280;2305;50.118;8.952;2023-04-21T04:10:07;100287.50;;;8.39;100.00
4586;BME280;2305;50.118;8.952;2023-04-21T04:12:38;100283.19;;;8.38;100.00
4586;BME280;2305;50.118;8.952;2023-04-21T04:15:07;100282.97;;;8.41;100.00
4586;BME280;2305;50.118;8.952;2023-04-21T04:17:35;100282.84;;;8.42;100.00
4586;BME280;2305;50.118;8.952;2023-04-21T04:20:07;100280.34;;;8.41;100.00
4586;BME280;2305;50.118;8.952;2023-04-21T04:22:35;100284.75;;;8.40;100.00
4586;BME280;2305;50.118;8.952;2023-04-21T04:25:03;100283.81;;;8.41;100.00
4586;BME280;2305;50.118;8.952;2023-04-21T04:27:32;100289.16;;;8.40;100.00
4586;BME280;2305;50.118;8.952;2023-04-21T04:30:00;100283.09;;;8.39;100.00
4586;BME280;2305;50.118;8.952;2023-04-21T04:32:29;100290.72;;;8.42;100.00
4586;BME280;2305;50.118;8.952;2023-04-21T04:34:57;100290.63;;;8.44;100.00
4586;BME280;2305;50.118;8.952;2023-04-21T04:37:26;100298.38;;;8.45;100.00
4586;BME280;2305;50.118;8.952;2023-04-21T04:39:55;100293.97;;;8.46;100.00
4586;BME280;2305;50.118;8.952;2023-04-21T04:42:23;100292.06;;;8.48;100.00
4586;BME280;2305;50.118;8.952;2023-04-21T04:44:52;100285.13;;;8.47;100.00
4586;BME280;2305;50.118;8.952;2023-04-21T04:47:19;100276.91;;;8.51;100.00
4586;BME280;2305;50.118;8.952;2023-04-21T04:49:48;100276.72;;;8.54;100.00
4586;BME280;2305;50.118;8.952;2023-04-21T04:52:17;100278.91;;;8.60;100.00
4586;BME280;2305;50.118;8.952;2023-04-21T04:54:46;100280.31;;;8.64;100.00
4586;BME280;2305;50.118;8.952;2023-04-21T04:57:14;100275.78;;;8.66;100.00
4586;BME280;2305;50.118;8.952;2023-04-21T04:59:42;100272.34;;;8.66;100.00
4586;BME280;2305;50.118;8.952;2023-04-21T05:02:10;100272.22;;;8.67;100.00
4586;BME280;2305;50.118;8.952;2023-04-21T05:04:39;100277.13;;;8.72;100.00
4586;BME280;2305;50.118;8.952;2023-04-21T05:07:09;100269.13;;;8.73;100.00
4586;BME280;2305;50.118;8.952;2023-04-21T05:09:38;100273.31;;;8.76;100.00
4586;BME280;2305;50.118;8.952;2023-04-21T05:12:07;100279.31;;;8.78;100.00
4586;BME280;2305;50.118;8.952;2023-04-21T05:14:35;100286.84;;;8.82;100.00
4586;BME280;2305;50.118;8.952;2023-04-21T05:17:06;100292.72;;;8.86;100.00
4586;BME280;2305;50.118;8.952;2023-04-21T05:19:34;100285.44;;;8.89;100.00
4586;BME280;2305;50.118;8.952;2023-04-21T05:22:04;100292.47;;;8.88;100.00
4586;BME280;2305;50.118;8.952;2023-04-21T05:24:33;100282.81;;;8.89;100.00
4586;BME280;2305;50.118;8.952;2023-04-21T05:27:01;100287.00;;;8.92;100.00
4586;BME280;2305;50.118;8.952;2023-04-21T05:29:34;100284.72;;;8.98;100.00
4586;BME280;2305;50.118;8.952;2023-04-21T05:32:02;100280.09;;;9.01;100.00
4586;BME280;2305;50.118;8.952;2023-04-21T05:34:31;100278.88;;;9.05;100.00
4586;BME280;2305;50.118;8.952;2023-04-21T05:36:59;100288.22;;;9.09;100.00
4586;BME280;2305;50.118;8.952;2023-04-21T05:39:29;100284.53;;;9.12;100.00
4586;BME280;2305;50.118;8.952;2023-04-21T05:41:57;100288.34;;;9.19;100.00
4586;BME280;2305;50.118;8.952;2023-04-21T05:44:26;100272.34;;;9.22;100.00
4586;BME280;2305;50.118;8.952;2023-04-21T05:46:55;100275.56;;;9.25;100.00
4586;BME280;2305;50.118;8.952;2023-04-21T05:49:23;100275.22;;;9.30;100.00
4586;BME280;2305;50.118;8.952;2023-04-21T05:51:51;100282.03;;;9.32;100.00
4586;BME280;2305;50.118;8.952;2023-04-21T05:54:19;100291.47;;;9.35;100.00
4586;BME280;2305;50.118;8.952;2023-04-21T05:56:47;100296.53;;;9.38;100.00
4586;BME280;2305;50.118;8.952;2023-04-21T05:59:15;100293.63;;;9.41;100.00
4586;BME280;2305;50.118;8.952;2023-04-21T06:01:43;100294.34;;;9.43;100.00
4586;BME280;2305;50.118;8.952;2023-04-21T06:04:12;100289.94;;;9.43;100.00
4586;BME280;2305;50.118;8.952;2023-04-21T06:06:41;100285.50;;;9.44;100.00
4586;BME280;2305;50.118;8.952;2023-04-21T06:09:10;100287.06;;;9.46;100.00
4586;BME280;2305;50.118;8.952;2023-04-21T06:11:41;100282.28;;;9.51;100.00
4586;BME280;2305;50.118;8.952;2023-04-21T06:14:09;100282.63;;;9.58;100.00
4586;BME280;2305;50.118;8.952;2023-04-21T06:16:37;100277.75;;;9.64;100.00
4586;BME280;2305;50.118;8.952;2023-04-21T06:19:06;100279.91;;;9.70;100.00
4586;BME280;2305;50.118;8.952;2023-04-21T06:21:36;100286.22;;;9.79;100.00
4586;BME280;2305;50.118;8.952;2023-04-21T06:24:05;100286.59;;;9.85;100.00
4586;BME280;2305;50.118;8.952;2023-04-21T06:26:33;100287.88;;;9.91;100.00
4586;BME280;2305;50.118;8.952;2023-04-21T06:29:01;100287.63;;;9.94;100.00
4586;BME280;2305;50.118;8.952;2023-04-21T06:31:29;100281.88;;;10.00;100.00
4586;BME280;2305;50.118;8.952;2023-04-21T06:34:02;100291.00;;;10.07;100.00
4586;BME280;2305;50.118;8.952;2023-04-21T06:36:30;100279.75;;;10.16;100.00
4586;BME280;2305;50.118;8.952;2023-04-21T06:39:00;100281.50;;;10.26;100.00
4586;BME280;2305;50.118;8.952;2023-04-21T06:41:30;100290.13;;;10.28;100.00
4586;BME280;2305;50.118;8.952;2023-04-21T06:44:05;100292.97;;;10.36;100.00
4586;BME280;2305;50.118;8.952;2023-04-21T06:46:33;100290.53;;;10.44;100.00
4586;BME280;2305;50.118;8.952;2023-04-21T06:49:01;100281.19;;;10.51;100.00
4586;BME280;2305;50.118;8.952;2023-04-21T06:51:32;100277.66;;;10.62;100.00
4586;BME280;2305;50.118;8.952;2023-04-21T06:54:01;100280.28;;;10.73;100.00
4586;BME280;2305;50.118;8.952;2023-04-21T06:56:30;100286.16;;;10.86;100.00
4586;BME280;2305;50.118;8.952;2023-04-21T06:58:58;100288.75;;;10.97;100.00
4586;BME280;2305;50.118;8.952;2023-04-21T07:01:26;100290.13;;;10.91;100.00
4586;BME280;2305;50.118;8.952;2023-04-21T07:03:56;100284.94;;;11.10;100.00
4586;BME280;2305;50.118;8.952;2023-04-21T07:06:24;100282.88;;;11.14;100.00
4586;BME280;2305;50.118;8.952;2023-04-21T07:08:53;100280.59;;;11.20;100.00
4586;BME280;2305;50.118;8.952;2023-04-21T07:11:22;100279.34;;;11.24;100.00
4586;BME280;2305;50.118;8.952;2023-04-21T07:13:50;100282.13;;;11.23;100.00
4586;BME280;2305;50.118;8.952;2023-04-21T07:16:18;100275.75;;;11.25;100.00
4586;BME280;2305;50.118;8.952;2023-04-21T07:18:47;100277.28;;;11.28;100.00
4586;BME280;2305;50.118;8.952;2023-04-21T07:21:15;100291.78;;;11.33;100.00
4586;BME280;2305;50.118;8.952;2023-04-21T07:23:45;100283.06;;;11.42;100.00
4586;BME280;2305;50.118;8.952;2023-04-21T07:26:13;100272.41;;;11.44;100.00
4586;BME280;2305;50.118;8.952;2023-04-21T07:28:45;100275.53;;;11.58;100.00
4586;BME280;2305;50.118;8.952;2023-04-21T07:31:18;100272.66;;;11.71;100.00
4586;BME280;2305;50.118;8.952;2023-04-21T07:33:46;100279.91;;;11.78;100.00
4586;BME280;2305;50.118;8.952;2023-04-21T07:36:14;100274.69;;;11.88;100.00
4586;BME280;2305;50.118;8.952;2023-04-21T07:38:45;100266.78;;;11.97;100.00
4586;BME280;2305;50.118;8.952;2023-04-21T07:41:14;100263.47;;;12.05;100.00
4586;BME280;2305;50.118;8.952;2023-04-21T07:43:42;100267.50;;;12.18;100.00
4586;BME280;2305;50.118;8.952;2023-04-21T07:46:14;100275.31;;;12.29;100.00
4586;BME280;2305;50.118;8.952;2023-04-21T07:48:42;100282.56;;;12.37;100.00
4586;BME280;2305;50.118;8.952;2023-04-21T07:51:11;100278.53;;;12.42;100.00
4586;BME280;2305;50.118;8.952;2023-04-21T07:53:45;100267.69;;;12.45;100.00
4586;BME280;2305;50.118;8.952;2023-04-21T07:56:14;100274.91;;;12.43;100.00
4586;BME280;2305;50.118;8.952;2023-04-21T07:58:42;100279.25;;;12.54;100.00
4586;BME280;2305;50.118;8.952;2023-04-21T08:01:10;100271.31;;;12.63;100.00
4586;BME280;2305;50.118;8.952;2023-04-21T08:03:40;100268.25;;;12.77;100.00
4586;BME280;2305;50.118;8.952;2023-04-21T08:06:08;100269.38;;;12.84;100.00
4586;BME280;2305;50.118;8.952;2023-04-21T08:08:38;100273.94;;;13.01;100.00
4586;BME280;2305;50.118;8.952;2023-04-21T08:11:07;100263.38;;;13.11;100.00
4586;BME280;2305;50.118;8.952;2023-04-21T08:13:37;100268.22;;;13.25;100.00
4586;BME280;2305;50.118;8.952;2023-04-21T08:16:05;100263.56;;;13.36;100.00
4586;BME280;2305;50.118;8.952;2023-04-21T08:18:34;100263.09;;;13.50;100.00
4586;BME280;2305;50.118;8.952;2023-04-21T08:21:05;100257.47;;;13.63;100.00
4586;BME280;2305;50.118;8.952;2023-04-21T08:23:33;100262.28;;;13.76;100.00
4586;BME280;2305;50.118;8.952;2023-04-21T08:26:01;100254.44;;;13.84;100.00
4586;BME280;2305;50.118;8.952;2023-04-21T08:28:30;100246.44;;;13.94;100.00
4586;BME280;2305;50.118;8.952;2023-04-21T08:30:58;100244.88;;;14.01;100.00
4586;BME280;2305;50.118;8.952;2023-04-21T08:33:29;100251.25;;;14.08;100.00
4586;BME280;2305;50.118;8.952;2023-04-21T08:35:57;100248.31;;;14.11;100.00
4586;BME280;2305;50.118;8.952;2023-04-21T08:38:34;100248.84;;;14.14;100.00
4586;BME280;2305;50.118;8.952;2023-04-21T08:41:03;100245.03;;;14.17;100.00
4586;BME280;2305;50.118;8.952;2023-04-21T08:43:33;100247.69;;;14.17;100.00
4586;BME280;2305;50.118;8.952;2023-04-21T08:46:06;100254.94;;;14.24;100.00
4586;BME280;2305;50.118;8.952;2023-04-21T08:48:35;100263.81;;;14.33;100.00
4586;BME280;2305;50.118;8.952;2023-04-21T08:51:06;100254.28;;;14.40;100.00
4586;BME280;2305;50.118;8.952;2023-04-21T08:53:39;100246.69;;;14.45;100.00
4586;BME280;2305;50.118;8.952;2023-04-21T08:56:08;100248.91;;;14.49;100.00
4586;BME280;2305;50.118;8.952;2023-04-21T08:58:40;100246.34;;;14.57;100.00
4586;BME280;2305;50.118;8.952;2023-04-21T09:01:08;100256.88;;;14.67;100.00
4586;BME280;2305;50.118;8.952;2023-04-21T09:03:36;100256.75;;;14.76;100.00
4586;BME280;2305;50.118;8.952;2023-04-21T09:06:08;100250.63;;;14.76;100.00
4586;BME280;2305;50.118;8.952;2023-04-21T09:08:43;100257.59;;;14.77;100.00
4586;BME280;2305;50.118;8.952;2023-04-21T09:11:19;100266.56;;;14.76;100.00
4586;BME280;2305;50.118;8.952;2023-04-21T09:13:47;100254.09;;;14.76;100.00
4586;BME280;2305;50.118;8.952;2023-04-21T09:16:17;100254.63;;;14.80;100.00
4586;BME280;2305;50.118;8.952;2023-04-21T09:18:46;100253.03;;;14.87;100.00
4586;BME280;2305;50.118;8.952;2023-04-21T09:21:15;100247.13;;;14.93;100.00
4586;BME280;2305;50.118;8.952;2023-04-21T09:23:46;100252.19;;;15.04;100.00
4586;BME280;2305;50.118;8.952;2023-04-21T09:26:15;100239.97;;;15.11;100.00
4586;BME280;2305;50.118;8.952;2023-04-21T09:28:48;100250.31;;;15.22;100.00
4586;BME280;2305;50.118;8.952;2023-04-21T09:31:17;100241.56;;;15.29;100.00
4586;BME280;2305;50.118;8.952;2023-04-21T09:33:48;100248.00;;;15.44;100.00
4586;BME280;2305;50.118;8.952;2023-04-21T09:36:27;100243.09;;;15.57;100.00
4586;BME280;2305;50.118;8.952;2023-04-21T09:38:58;100239.94;;;15.62;100.00
4586;BME280;2305;50.118;8.952;2023-04-21T09:41:32;100239.47;;;15.66;100.00
4586;BME280;2305;50.118;8.952;2023-04-21T09:44:00;100238.63;;;15.66;100.00
4586;BME280;2305;50.118;8.952;2023-04-21T09:46:32;100237.16;;;15.63;100.00
4586;BME280;2305;50.118;8.952;2023-04-21T09:49:01;100243.31;;;15.72;100.00
4586;BME280;2305;50.118;8.952;2023-04-21T09:51:31;100232.72;;;15.80;100.00
4586;BME280;2305;50.118;8.952;2023-04-21T09:54:15;100232.91;;;15.86;100.00
4586;BME280;2305;50.118;8.952;2023-04-21T09:56:59;100230.41;;;15.85;100.00
4586;BME280;2305;50.118;8.952;2023-04-21T09:59:33;100233.56;;;15.80;100.00
4586;BME280;2305;50.118;8.952;2023-04-21T10:02:04;100244.66;;;15.76;100.00
4586;BME280;2305;50.118;8.952;2023-04-21T10:04:35;100247.09;;;15.69;100.00
4586;BME280;2305;50.118;8.952;2023-04-21T10:07:05;100236.31;;;15.63;100.00
4586;BME280;2305;50.118;8.952;2023-04-21T10:09:39;100237.59;;;15.59;100.00
4586;BME280;2305;50.118;8.952;2023-04-21T10:12:12;100233.66;;;15.63;100.00
4586;BME280;2305;50.118;8.952;2023-04-21T10:14:42;100228.28;;;15.55;100.00
4586;BME280;2305;50.118;8.952;2023-04-21T10:17:10;100229.56;;;15.43;100.00
4586;BME280;2305;50.118;8.952;2023-04-21T10:19:47;100225.72;;;15.37;100.00
4586;BME280;2305;50.118;8.952;2023-04-21T10:22:26;100227.53;;;15.37;100.00
4586;BME280;2305;50.118;8.952;2023-04-21T10:24:57;100223.88;;;15.38;100.00
4586;BME280;2305;50.118;8.952;2023-04-21T10:27:33;100227.56;;;15.45;100.00
4586;BME280;2305;50.118;8.952;2023-04-21T10:30:17;100219.88;;;15.34;100.00
4586;BME280;2305;50.118;8.952;2023-04-21T10:32:46;100219.66;;;15.53;100.00
4586;BME280;2305;50.118;8.952;2023-04-21T10:35:20;100206.44;;;15.69;100.00
4586;BME280;2305;50.118;8.952;2023-04-21T10:37:49;100205.69;;;15.84;100.00
4586;BME280;2305;50.118;8.952;2023-04-21T10:40:34;100207.91;;;16.13;100.00
4586;BME280;2305;50.118;8.952;2023-04-21T10:43:43;100203.63;;;16.36;100.00
4586;BME280;2305;50.118;8.952;2023-04-21T10:46:32;100201.66;;;16.78;100.00
4586;BME280;2305;50.118;8.952;2023-04-21T10:49:05;100199.31;;;17.07;100.00
4586;BME280;2305;50.118;8.952;2023-04-21T10:52:01;100195.44;;;17.17;100.00
4586;BME280;2305;50.118;8.952;2023-04-21T10:54:36;100196.59;;;17.31;100.00
4586;BME280;2305;50.118;8.952;2023-04-21T10:57:09;100188.75;;;17.45;100.00
4586;BME280;2305;50.118;8.952;2023-04-21T10:59:38;100190.13;;;17.72;100.00
4586;BME280;2305;50.118;8.952;2023-04-21T11:02:07;100179.16;;;18.05;100.00
4586;BME280;2305;50.118;8.952;2023-04-21T11:04:39;100183.41;;;17.84;100.00
4586;BME280;2305;50.118;8.952;2023-04-21T11:07:15;100189.09;;;17.81;100.00
4586;BME280;2305;50.118;8.952;2023-04-21T11:09:45;100183.34;;;17.69;100.00
4586;BME280;2305;50.118;8.952;2023-04-21T11:12:17;100185.59;;;17.42;100.00
4586;BME280;2305;50.118;8.952;2023-04-21T11:14:46;100191.78;;;17.18;100.00
4586;BME280;2305;50.118;8.952;2023-04-21T11:17:16;100195.03;;;16.82;100.00
4586;BME280;2305;50.118;8.952;2023-04-21T11:19:49;100193.03;;;16.76;100.00
4586;BME280;2305;50.118;8.952;2023-04-21T11:22:22;100192.19;;;16.43;100.00
4586;BME280;2305;50.118;8.952;2023-04-21T11:24:53;100178.91;;;16.43;100.00
4586;BME280;2305;50.118;8.952;2023-04-21T11:27:25;100175.75;;;16.40;100.00
4586;BME280;2305;50.118;8.952;2023-04-21T11:29:54;100179.66;;;16.20;100.00
4586;BME280;2305;50.118;8.952;2023-04-21T11:32:23;100176.53;;;16.32;100.00
4586;BME280;2305;50.118;8.952;2023-04-21T11:34:51;100176.56;;;16.56;100.00
4586;BME280;2305;50.118;8.952;2023-04-21T11:37:22;100168.25;;;16.91;100.00
4586;BME280;2305;50.118;8.952;2023-04-21T11:39:57;100167.88;;;17.02;100.00
4586;BME280;2305;50.118;8.952;2023-04-21T11:42:27;100161.03;;;17.00;100.00
4586;BME280;2305;50.118;8.952;2023-04-21T11:44:55;100155.41;;;16.87;100.00
4586;BME280;2305;50.118;8.952;2023-04-21T11:47:25;100157.72;;;16.98;100.00
4586;BME280;2305;50.118;8.952;2023-04-21T11:49:55;100156.72;;;16.99;100.00
4586;BME280;2305;50.118;8.952;2023-04-21T11:52:27;100160.03;;;17.17;100.00
4586;BME280;2305;50.118;8.952;2023-04-21T11:54:58;100149.66;;;17.38;100.00
4586;BME280;2305;50.118;8.952;2023-04-21T11:57:28;100148.66;;;17.31;100.00
4586;BME280;2305;50.118;8.952;2023-04-21T11:59:59;100151.13;;;17.40;100.00
4586;BME280;2305;50.118;8.952;2023-04-21T12:02:30;100143.63;;;17.36;100.00
4586;BME280;2305;50.118;8.952;2023-04-21T12:05:01;100142.00;;;17.27;100.00
4586;BME280;2305;50.118;8.952;2023-04-21T12:07:30;100131.84;;;17.30;100.00
4586;BME280;2305;50.118;8.952;2023-04-21T12:09:59;100131.94;;;17.53;100.00
4586;BME280;2305;50.118;8.952;2023-04-21T12:12:30;100132.69;;;17.69;100.00
4586;BME280;2305;50.118;8.952;2023-04-21T12:15:01;100132.84;;;18.21;100.00
4586;BME280;2305;50.118;8.952;2023-04-21T12:17:35;100124.28;;;18.70;100.00
4586;BME280;2305;50.118;8.952;2023-04-21T12:20:04;100129.72;;;18.77;100.00
4586;BME280;2305;50.118;8.952;2023-04-21T12:22:33;100124.63;;;18.67;100.00
4586;BME280;2305;50.118;8.952;2023-04-21T12:25:01;100119.50;;;18.80;100.00
4586;BME280;2305;50.118;8.952;2023-04-21T12:27:31;100109.50;;;18.96;100.00
4586;BME280;2305;50.118;8.952;2023-04-21T12:29:59;100114.47;;;19.28;100.00
4586;BME280;2305;50.118;8.952;2023-04-21T12:32:27;100106.34;;;18.78;100.00
4586;BME280;2305;50.118;8.952;2023-04-21T12:34:55;100095.59;;;19.15;100.00
4586;BME280;2305;50.118;8.952;2023-04-21T12:37:24;100087.69;;;19.36;100.00
4586;BME280;2305;50.118;8.952;2023-04-21T12:39:52;100088.66;;;19.50;100.00
4586;BME280;2305;50.118;8.952;2023-04-21T12:42:20;100085.97;;;19.64;100.00
4586;BME280;2305;50.118;8.952;2023-04-21T12:44:49;100089.16;;;19.74;100.00
4586;BME280;2305;50.118;8.952;2023-04-21T12:47:18;100089.53;;;19.71;100.00
4586;BME280;2305;50.118;8.952;2023-04-21T12:49:46;100094.56;;;20.02;100.00
4586;BME280;2305;50.118;8.952;2023-04-21T12:52:13;100098.22;;;20.57;100.00
4586;BME280;2305;50.118;8.952;2023-04-21T12:54:41;100097.03;;;20.66;100.00
4586;BME280;2305;50.118;8.952;2023-04-21T12:57:13;100098.50;;;20.69;100.00
4586;BME280;2305;50.118;8.952;2023-04-21T12:59:42;100089.31;;;20.84;100.00
4586;BME280;2305;50.118;8.952;2023-04-21T13:02:14;100076.47;;;21.01;100.00
4586;BME280;2305;50.118;8.952;2023-04-21T13:04:42;100073.41;;;21.04;100.00
4586;BME280;2305;50.118;8.952;2023-04-21T13:07:13;100058.75;;;21.00;100.00
4586;BME280;2305;50.118;8.952;2023-04-21T13:09:41;100066.97;;;20.64;100.00
4586;BME280;2305;50.118;8.952;2023-04-21T13:12:10;100069.41;;;20.66;100.00
4586;BME280;2305;50.118;8.952;2023-04-21T13:14:40;100068.97;;;20.62;100.00
4586;BME280;2305;50.118;8.952;2023-04-21T13:17:08;100065.91;;;20.38;100.00
4586;BME280;2305;50.118;8.952;2023-04-21T13:19:38;100076.56;;;20.59;100.00